Time;durP1;ratioP1;P1;durP2;ratioP2;P2;SDS_P1;SDS_P2;PMS_P1;PMS_P2;Temp;Humidity;BMP_temperature;BMP_pressure;BME280_temperature;BME280_humidity;BME280_pressure;Samples;Min_cycle;Max_cycle;Signal;HPM_P1;HPM_P2
2021/12/13 00:02:46;;;;;;;11.90;2.50;;;24.20;99.90;;;;;;5074706;28;20225;-68
2021/12/13 00:05:20;;;;;;;8.90;1.97;;;24.70;99.90;;;;;;5062335;28;20250;-70
2021/12/13 00:07:59;;;;;;;10.77;2.40;;;24.90;99.90;;;;;;5074623;28;20164;-70
2021/12/13 00:10:38;;;;;;;7.13;1.80;;;25.20;99.90;;;;;;5074614;28;20720;-71
2021/12/13 00:13:11;;;;;;;12.10;1.80;;;25.00;99.90;;;;;;5074441;28;20179;-69
2021/12/13 00:15:58;;;;;;;11.10;2.10;;;24.90;99.90;;;;;;5074536;28;20258;-69
2021/12/13 00:18:32;;;;;;;8.93;2.13;;;24.30;99.90;;;;;;5074323;28;20179;-71
2021/12/13 00:21:28;;;;;;;8.50;2.33;;;24.60;99.90;;;;;;5072926;28;20188;-72
2021/12/13 00:24:10;;;;;;;10.57;2.10;;;25.20;99.90;;;;;;5072657;28;20548;-72
2021/12/13 00:26:45;;;;;;;10.20;2.23;;;25.10;99.90;;;;;;5074271;28;20263;-72
2021/12/13 00:29:18;;;;;;;6.30;1.90;;;25.30;99.90;;;;;;5074561;28;20164;-68
2021/12/13 00:31:58;;;;;;;7.80;2.03;;;25.90;99.90;;;;;;5074275;28;20521;-71
2021/12/13 00:34:34;;;;;;;8.50;2.80;;;25.90;99.90;;;;;;5073727;28;20211;-70
2021/12/13 00:37:16;;;;;;;8.27;1.67;;;25.30;99.90;;;;;;5073996;28;20184;-70
2021/12/13 00:40:19;;;;;;;5.97;1.90;;;25.30;99.90;;;;;;5074117;28;20179;-69
2021/12/13 00:43:02;;;;;;;5.93;2.00;;;25.90;99.90;;;;;;5073498;28;20288;-68
2021/12/13 00:45:33;;;;;;;8.93;1.87;;;25.90;99.90;;;;;;5073968;28;20175;-68
2021/12/13 00:48:03;;;;;;;5.90;1.57;;;26.10;99.90;;;;;;5074246;28;20182;-70
2021/12/13 00:50:48;;;;;;;5.17;1.70;;;26.10;99.90;;;;;;5073758;28;20694;-71
2021/12/13 00:53:21;;;;;;;5.73;1.60;;;26.30;99.90;;;;;;5074207;28;20630;-72
2021/12/13 00:55:50;;;;;;;5.63;1.63;;;26.60;99.90;;;;;;5073594;28;20313;-72
2021/12/13 00:58:25;;;;;;;8.53;2.40;;;26.60;99.90;;;;;;5072233;28;20186;-70
2021/12/13 01:00:58;;;;;;;6.13;1.60;;;26.60;99.90;;;;;;5073503;28;20189;-72
2021/12/13 01:03:48;;;;;;;9.50;1.70;;;27.40;99.90;;;;;;5073911;28;20246;-70
2021/12/13 01:06:37;;;;;;;8.60;1.80;;;27.50;99.90;;;;;;5073325;28;20276;-71
2021/12/13 01:09:41;;;;;;;9.97;1.70;;;27.60;99.90;;;;;;5072033;28;20186;-70
2021/12/13 01:12:13;;;;;;;8.83;1.80;;;27.70;99.90;;;;;;5072130;28;20179;-71
2021/12/13 01:15:01;;;;;;;7.00;1.90;;;27.20;99.90;;;;;;5073153;28;20682;-71
2021/12/13 01:17:52;;;;;;;5.73;1.40;;;27.30;99.90;;;;;;5072016;28;20712;-69
2021/12/13 01:21:30;;;;;;;6.70;1.90;;;27.70;99.90;;;;;;5071811;28;20184;-70
2021/12/13 01:23:46;;;;;;;7.73;2.40;;;27.80;99.90;;;;;;5072546;28;20615;-70
2021/12/13 01:28:55;;;;;;;9.20;1.67;;;27.70;99.90;;;;;;5073175;28;20183;-71
2021/12/13 01:31:32;;;;;;;8.40;1.87;;;27.50;99.90;;;;;;5071848;28;20252;-72
2021/12/13 01:34:01;;;;;;;8.17;2.00;;;27.70;99.90;;;;;;5071925;28;20203;-71
2021/12/13 01:36:47;;;;;;;4.17;1.60;;;28.20;99.90;;;;;;5072931;28;20171;-73
2021/12/13 01:39:28;;;;;;;6.23;1.60;;;28.00;99.90;;;;;;5073017;28;20201;-70
2021/12/13 01:42:06;;;;;;;8.60;2.03;;;28.00;99.90;;;;;;5072225;28;20179;-69
2021/12/13 01:44:38;;;;;;;4.90;1.67;;;27.70;99.90;;;;;;5072920;28;20178;-72
2021/12/13 01:47:14;;;;;;;4.90;1.87;;;27.70;99.90;;;;;;5072273;28;20253;-70
2021/12/13 01:49:48;;;;;;;11.53;1.83;;;28.30;99.90;;;;;;5072468;28;20543;-70
2021/12/13 01:52:28;;;;;;;8.67;1.70;;;28.70;99.90;;;;;;5072336;28;20251;-70
2021/12/13 01:54:59;;;;;;;5.87;1.70;;;28.50;99.90;;;;;;5072214;28;20681;-71
2021/12/13 01:57:40;;;;;;;6.23;1.43;;;28.50;99.90;;;;;;5072937;28;20176;-72
2021/12/13 02:00:43;;;;;;;5.40;1.60;;;28.90;99.90;;;;;;5074559;28;20197;-71
2021/12/13 02:03:12;;;;;;;6.57;1.80;;;28.70;99.90;;;;;;5077035;28;20172;-71
2021/12/13 02:05:40;;;;;;;6.03;1.77;;;28.60;99.90;;;;;;5076735;28;20230;-71
2021/12/13 02:08:20;;;;;;;7.60;1.53;;;28.60;99.90;;;;;;5077022;28;20175;-72
2021/12/13 02:10:56;;;;;;;9.53;2.20;;;28.80;99.90;;;;;;5076705;28;20194;-71
2021/12/13 02:13:28;;;;;;;5.00;1.40;;;28.20;99.90;;;;;;5076905;28;20562;-68
2021/12/13 02:18:53;;;;;;;6.23;1.67;;;28.40;99.90;;;;;;5077182;28;20222;-71
2021/12/13 02:21:36;;;;;;;7.80;1.70;;;28.90;99.90;;;;;;5076695;28;20226;-72
2021/12/13 02:24:09;;;;;;;7.87;1.93;;;29.10;99.90;;;;;;5076743;28;20595;-71
2021/12/13 02:26:40;;;;;;;7.50;1.80;;;29.10;99.90;;;;;;5075076;28;20521;-71
2021/12/13 02:29:21;;;;;;;4.60;1.57;;;29.20;99.90;;;;;;5076506;28;20168;-71
2021/12/13 02:31:49;;;;;;;8.33;2.53;;;28.50;99.90;;;;;;5076506;28;20172;-68
2021/12/13 02:34:18;;;;;;;6.37;1.77;;;28.90;99.90;;;;;;5075964;28;20219;-71
2021/12/13 02:36:53;;;;;;;6.90;2.00;;;28.30;99.90;;;;;;5076294;28;20168;-72
2021/12/13 02:39:30;;;;;;;6.17;1.77;;;28.00;99.90;;;;;;5075934;28;20179;-69
2021/12/13 02:42:01;;;;;;;5.57;1.80;;;28.30;99.90;;;;;;5074831;28;20176;-70
2021/12/13 02:44:38;;;;;;;8.33;1.97;;;28.70;99.90;;;;;;5073972;28;20204;-71
2021/12/13 02:47:17;;;;;;;11.83;2.07;;;28.90;99.90;;;;;;5074762;28;20220;-71
2021/12/13 02:49:45;;;;;;;6.63;2.00;;;29.20;99.90;;;;;;5074125;28;20214;-70
2021/12/13 02:52:18;;;;;;;6.50;1.87;;;29.10;99.90;;;;;;5073893;28;20229;-71
2021/12/13 02:54:50;;;;;;;4.10;1.40;;;28.90;99.90;;;;;;5073831;28;20204;-71
2021/12/13 02:57:21;;;;;;;7.10;1.87;;;28.50;99.90;;;;;;5073930;28;20180;-71
2021/12/13 03:00:07;;;;;;;8.53;2.30;;;28.70;99.90;;;;;;5074374;28;20192;-72
2021/12/13 03:02:39;;;;;;;5.80;1.77;;;28.90;99.90;;;;;;5075444;28;20630;-73
2021/12/13 03:05:12;;;;;;;8.03;1.60;;;28.90;99.90;;;;;;5075876;28;20575;-72
2021/12/13 03:07:43;;;;;;;8.50;2.03;;;29.30;99.90;;;;;;5075756;28;20609;-70
2021/12/13 03:10:17;;;;;;;7.17;2.03;;;29.50;99.90;;;;;;5075847;28;20173;-69
2021/12/13 03:12:44;;;;;;;6.80;1.90;;;29.70;99.90;;;;;;5075768;28;20180;-72
2021/12/13 03:15:16;;;;;;;6.70;2.10;;;29.30;99.90;;;;;;5075678;28;20219;-72
2021/12/13 03:17:56;;;;;;;7.50;1.90;;;29.00;99.90;;;;;;5075548;28;20662;-70
2021/12/13 03:20:52;;;;;;;8.20;2.13;;;29.20;99.90;;;;;;5075525;28;20668;-70
2021/12/13 03:23:49;;;;;;;7.30;1.80;;;29.20;99.90;;;;;;5071550;28;20180;-71
2021/12/13 03:26:47;;;;;;;7.33;2.00;;;29.50;99.90;;;;;;5075813;28;20176;-72
2021/12/13 03:29:35;;;;;;;10.23;1.83;;;29.40;99.90;;;;;;5075498;28;20168;-69
2021/12/13 03:32:04;;;;;;;11.37;2.47;;;29.10;99.90;;;;;;5075541;28;20172;-71
2021/12/13 03:34:35;;;;;;;8.07;1.70;;;28.90;99.90;;;;;;5075086;28;20214;-71
2021/12/13 03:37:02;;;;;;;6.43;2.43;;;28.70;99.90;;;;;;5074962;28;20176;-72
2021/12/13 03:39:42;;;;;;;9.40;1.97;;;28.60;99.90;;;;;;5075006;28;20180;-72
2021/12/13 03:42:16;;;;;;;11.03;2.53;;;28.70;99.90;;;;;;5074949;28;20176;-72
2021/12/13 03:44:47;;;;;;;11.63;2.53;;;29.10;99.90;;;;;;5075063;28;20174;-71
2021/12/13 03:47:20;;;;;;;15.57;3.03;;;28.50;99.90;;;;;;5074771;28;20168;-71
2021/12/13 03:49:51;;;;;;;6.57;2.10;;;28.50;99.90;;;;;;5075176;28;20611;-73
2021/12/13 03:52:22;;;;;;;6.37;2.13;;;28.80;99.90;;;;;;5075080;28;20613;-70
2021/12/13 03:54:52;;;;;;;9.67;1.90;;;29.20;99.90;;;;;;5073600;28;20632;-72
2021/12/13 03:57:20;;;;;;;10.83;2.30;;;29.40;99.90;;;;;;5075161;28;20171;-69
2021/12/13 03:59:48;;;;;;;9.50;2.10;;;28.90;99.90;;;;;;5074969;28;20207;-72
2021/12/13 04:02:27;;;;;;;8.20;2.17;;;28.80;99.90;;;;;;5074980;28;20263;-72
2021/12/13 04:05:02;;;;;;;5.97;2.33;;;28.70;99.90;;;;;;5074879;28;20227;-71
2021/12/13 04:07:40;;;;;;;11.97;2.97;;;27.90;99.90;;;;;;5074755;28;20195;-69
2021/12/13 04:10:19;;;;;;;10.83;2.03;;;28.20;99.90;;;;;;5074602;28;20180;-70
2021/12/13 04:12:51;;;;;;;10.07;1.63;;;28.60;99.90;;;;;;5075061;28;20202;-68
2021/12/13 04:16:15;;;;;;;14.80;2.70;;;29.10;99.90;;;;;;5074586;28;20212;-68
2021/12/13 04:19:25;;;;;;;9.57;2.27;;;29.30;99.90;;;;;;5073248;28;20214;-71
2021/12/13 04:21:51;;;;;;;9.90;1.97;;;29.30;99.90;;;;;;5070380;28;20188;-70
2021/12/13 04:24:42;;;;;;;14.07;2.70;;;29.10;99.90;;;;;;5073821;28;20266;-71
2021/12/13 04:27:18;;;;;;;11.67;2.63;;;28.20;99.90;;;;;;5072920;28;20180;-68
2021/12/13 04:29:46;;;;;;;9.87;2.10;;;28.60;99.90;;;;;;5074266;28;20172;-71
2021/12/13 04:32:22;;;;;;;9.67;1.80;;;28.80;99.90;;;;;;5074237;28;20172;-72
2021/12/13 04:34:53;;;;;;;8.70;1.90;;;28.50;99.90;;;;;;5073874;28;20203;-71
2021/12/13 04:37:26;;;;;;;12.67;3.17;;;28.10;99.90;;;;;;5074215;28;20176;-68
2021/12/13 04:40:00;;;;;;;5.27;1.73;;;28.10;99.90;;;;;;5073826;28;20214;-71
2021/12/13 04:42:29;;;;;;;8.17;2.47;;;28.60;99.90;;;;;;5074125;28;20201;-71
2021/12/13 04:45:04;;;;;;;11.20;2.40;;;27.60;99.90;;;;;;5073973;28;20215;-69
2021/12/13 04:48:02;;;;;;;8.97;2.27;;;27.50;99.90;;;;;;5074396;28;20629;-69
2021/12/13 04:50:52;;;;;;;10.37;2.10;;;27.70;99.90;;;;;;5073730;28;20168;-71
2021/12/13 04:53:30;;;;;;;7.37;1.97;;;27.50;99.90;;;;;;5073973;28;20183;-71
2021/12/13 04:56:04;;;;;;;6.07;1.77;;;27.70;99.90;;;;;;5073896;28;20176;-70
2021/12/13 04:58:32;;;;;;;8.70;2.07;;;27.50;99.90;;;;;;5073524;28;20172;-70
2021/12/13 05:01:02;;;;;;;9.97;2.40;;;27.60;99.90;;;;;;5073161;28;20183;-69
2021/12/13 05:03:33;;;;;;;9.33;2.37;;;28.30;99.90;;;;;;5073412;28;20183;-67
2021/12/13 05:06:09;;;;;;;11.03;2.60;;;28.20;99.90;;;;;;5073607;28;20224;-69
2021/12/13 05:08:40;;;;;;;8.83;2.33;;;27.80;99.90;;;;;;5055092;28;20184;-71
2021/12/13 05:11:09;;;;;;;9.37;2.20;;;27.60;99.90;;;;;;5072393;28;20180;-70
2021/12/13 05:14:00;;;;;;;10.20;2.07;;;27.40;99.90;;;;;;5068935;28;20679;-69
2021/12/13 05:16:41;;;;;;;9.80;2.20;;;27.60;99.90;;;;;;5068107;28;20764;-69
2021/12/13 05:19:11;;;;;;;10.20;2.10;;;27.40;99.90;;;;;;5069341;28;20529;-69
2021/12/13 05:21:42;;;;;;;10.60;2.00;;;27.20;99.90;;;;;;5071905;28;20649;-68
2021/12/13 05:24:19;;;;;;;11.03;2.73;;;27.60;99.90;;;;;;5070656;28;20184;-69
2021/12/13 05:26:51;;;;;;;8.77;1.90;;;27.30;99.90;;;;;;5071344;28;20187;-67
2021/12/13 05:29:34;;;;;;;19.60;2.40;;;27.50;99.90;;;;;;5069385;28;20191;-69
2021/12/13 05:32:25;;;;;;;16.17;2.97;;;27.60;99.90;;;;;;5071288;28;20183;-68
2021/12/13 05:35:01;;;;;;;10.27;2.63;;;27.60;99.90;;;;;;5064084;28;20689;-69
2021/12/13 05:37:43;;;;;;;10.87;2.77;;;27.80;99.90;;;;;;5071118;28;20262;-69
2021/12/13 05:40:19;;;;;;;9.17;1.93;;;27.80;99.90;;;;;;5071467;28;20187;-70
2021/12/13 05:42:51;;;;;;;15.40;2.40;;;27.50;99.90;;;;;;5069217;28;20183;-69
2021/12/13 05:45:30;;;;;;;13.27;2.50;;;27.50;99.90;;;;;;5070348;28;20300;-69
2021/12/13 05:48:14;;;;;;;14.33;3.17;;;26.90;99.90;;;;;;5071353;28;20186;-68
2021/12/13 05:51:04;;;;;;;10.67;1.97;;;26.90;99.90;;;;;;5069521;28;20176;-69
2021/12/13 05:53:46;;;;;;;9.17;1.93;;;27.00;99.90;;;;;;5071277;28;20215;-70
2021/12/13 05:56:20;;;;;;;15.00;2.90;;;26.90;99.90;;;;;;5070852;28;20184;-68
2021/12/13 05:58:58;;;;;;;7.17;1.87;;;26.80;99.90;;;;;;5071482;28;20241;-70
2021/12/13 06:01:40;;;;;;;9.90;2.33;;;26.80;99.90;;;;;;5070549;28;20180;-69
2021/12/13 06:04:07;;;;;;;12.10;2.43;;;26.30;99.90;;;;;;5071535;28;20215;-69
2021/12/13 06:06:46;;;;;;;7.40;2.03;;;25.50;99.90;;;;;;5070594;28;20241;-71
2021/12/13 06:09:45;;;;;;;12.47;2.80;;;25.80;99.90;;;;;;5067499;28;20175;-68
2021/12/13 06:12:32;;;;;;;7.73;2.03;;;26.30;99.90;;;;;;5069479;28;20176;-71
2021/12/13 06:15:20;;;;;;;10.10;2.30;;;26.30;99.90;;;;;;5069979;28;20289;-70
2021/12/13 06:17:54;;;;;;;7.83;2.23;;;26.50;99.90;;;;;;5071190;28;20176;-69
2021/12/13 06:20:44;;;;;;;12.97;2.73;;;26.70;99.90;;;;;;5069724;28;20661;-68
2021/12/13 06:23:23;;;;;;;10.13;1.90;;;26.30;99.90;;;;;;5070820;28;20544;-69
2021/12/13 06:26:01;;;;;;;9.53;2.43;;;25.90;99.90;;;;;;5071011;28;20722;-69
2021/12/13 06:28:35;;;;;;;10.40;2.30;;;26.00;99.90;;;;;;5070402;28;20233;-70
2021/12/13 06:31:18;;;;;;;8.83;2.40;;;25.90;99.90;;;;;;5070127;28;20520;-68
2021/12/13 06:33:55;;;;;;;5.80;1.60;;;25.30;99.90;;;;;;5071210;28;20199;-70
2021/12/13 06:36:46;;;;;;;10.83;2.20;;;24.90;99.90;;;;;;5070996;28;20192;-68
2021/12/13 06:39:14;;;;;;;6.13;1.90;;;24.90;99.90;;;;;;5069751;28;20180;-68
2021/12/13 06:41:50;;;;;;;11.63;2.40;;;25.30;99.90;;;;;;5070653;28;20183;-70
2021/12/13 06:44:29;;;;;;;7.43;2.10;;;25.50;99.90;;;;;;5070180;28;20176;-69
2021/12/13 06:47:18;;;;;;;8.03;1.70;;;24.90;99.90;;;;;;5072943;28;20254;-69
2021/12/13 06:49:49;;;;;;;14.97;2.40;;;24.90;99.90;;;;;;5074213;28;20187;-67
2021/12/13 06:52:16;;;;;;;7.83;2.03;;;25.20;99.90;;;;;;5074576;28;20206;-68
2021/12/13 06:54:55;;;;;;;6.80;1.80;;;25.60;99.90;;;;;;5074130;28;20224;-70
2021/12/13 06:57:33;;;;;;;10.30;1.83;;;25.70;99.90;;;;;;5074547;28;20672;-71
2021/12/13 07:00:27;;;;;;;7.07;1.70;;;25.50;99.90;;;;;;5074414;28;20258;-70
2021/12/13 07:02:56;;;;;;;10.37;2.13;;;25.30;99.90;;;;;;5074429;28;20539;-70
2021/12/13 07:05:42;;;;;;;7.80;2.17;;;25.30;99.90;;;;;;5074051;28;20687;-68
2021/12/13 07:08:21;;;;;;;10.17;2.27;;;25.20;99.90;;;;;;5073759;28;20190;-69
2021/12/13 07:10:57;;;;;;;9.77;2.23;;;25.00;99.90;;;;;;5074023;28;20262;-70
2021/12/13 07:13:31;;;;;;;8.43;2.00;;;25.00;99.90;;;;;;5073289;28;20180;-68
2021/12/13 07:16:07;;;;;;;16.03;2.80;;;24.70;99.90;;;;;;5072726;28;20601;-69
2021/12/13 07:19:01;;;;;;;11.00;1.87;;;24.80;99.90;;;;;;5073140;28;20186;-68
2021/12/13 07:21:36;;;;;;;8.63;2.10;;;24.60;99.90;;;;;;5073209;28;20191;-70
2021/12/13 07:24:13;;;;;;;14.83;2.27;;;24.30;99.90;;;;;;5073349;28;20269;-70
2021/12/13 07:26:49;;;;;;;7.03;2.07;;;24.30;99.90;;;;;;5071765;28;20187;-69
2021/12/13 07:29:21;;;;;;;11.40;2.10;;;24.40;99.90;;;;;;5073220;28;20193;-69
2021/12/13 07:32:23;;;;;;;10.80;2.60;;;23.90;99.90;;;;;;5073912;28;20245;-71
2021/12/13 07:35:09;;;;;;;8.80;1.93;;;24.10;99.90;;;;;;5073341;28;20214;-69
2021/12/13 07:37:45;;;;;;;8.83;2.30;;;24.30;99.90;;;;;;5073809;28;20188;-71
2021/12/13 07:40:37;;;;;;;7.80;1.93;;;24.60;99.90;;;;;;5071713;28;20183;-71
2021/12/13 07:43:19;;;;;;;12.63;2.37;;;24.80;99.90;;;;;;5071545;28;20218;-69
2021/12/13 07:46:10;;;;;;;9.60;2.00;;;24.80;99.90;;;;;;5071613;28;20271;-70
2021/12/13 07:48:41;;;;;;;12.33;2.73;;;24.00;99.90;;;;;;5071983;28;20195;-71
2021/12/13 07:51:18;;;;;;;11.33;2.60;;;23.50;99.90;;;;;;5073354;28;20196;-70
2021/12/13 07:53:57;;;;;;;10.83;2.60;;;23.20;99.90;;;;;;5072636;28;20699;-68
2021/12/13 07:56:30;;;;;;;8.97;2.37;;;23.50;99.90;;;;;;5072341;28;20676;-69
2021/12/13 07:59:18;;;;;;;11.57;2.37;;;23.70;99.90;;;;;;5071954;28;20182;-69
2021/12/13 08:01:54;;;;;;;13.27;2.40;;;23.50;99.90;;;;;;5069954;28;20268;-69
2021/12/13 08:04:28;;;;;;;7.57;2.60;;;23.30;99.90;;;;;;5073004;28;20226;-70
2021/12/13 08:07:01;;;;;;;8.80;2.10;;;23.20;99.90;;;;;;5072769;28;20210;-69
2021/12/13 08:09:30;;;;;;;12.50;2.30;;;23.10;99.90;;;;;;5072956;28;20745;-69
2021/12/13 08:12:14;;;;;;;12.23;2.47;;;23.20;99.90;;;;;;5072353;28;20227;-69
2021/12/13 08:14:44;;;;;;;6.17;1.70;;;23.30;99.90;;;;;;5070753;28;20253;-68
2021/12/13 08:17:21;;;;;;;7.57;1.77;;;22.80;99.90;;;;;;5071707;28;20184;-69
2021/12/13 08:20:01;;;;;;;9.50;2.47;;;22.40;99.90;;;;;;5072628;28;20182;-67
2021/12/13 08:22:30;;;;;;;9.30;2.07;;;22.10;99.90;;;;;;5073558;28;20584;-70
2021/12/13 08:25:20;;;;;;;9.90;2.07;;;21.90;99.90;;;;;;5072478;28;20190;-71
2021/12/13 08:28:06;;;;;;;8.53;1.90;;;21.70;99.90;;;;;;5052676;28;20643;-70
2021/12/13 08:30:50;;;;;;;13.13;2.40;;;21.60;99.90;;;;;;5071562;28;20244;-70
2021/12/13 08:33:25;;;;;;;14.30;2.73;;;21.50;99.90;;;;;;5072282;28;20180;-69
2021/12/13 08:35:55;;;;;;;12.20;2.17;;;21.40;99.90;;;;;;5070860;28;20226;-71
2021/12/13 08:38:25;;;;;;;14.77;2.77;;;21.20;99.90;;;;;;5071531;28;20180;-70
2021/12/13 08:40:53;;;;;;;8.50;2.50;;;21.10;99.90;;;;;;5070446;28;20267;-68
2021/12/13 08:43:40;;;;;;;11.03;2.30;;;21.10;99.90;;;;;;5052407;28;20180;-68
2021/12/13 08:46:09;;;;;;;14.20;2.83;;;21.00;99.90;;;;;;5066102;28;20187;-68
2021/12/13 08:48:49;;;;;;;9.50;2.10;;;21.00;99.90;;;;;;5072090;28;20172;-68
2021/12/13 08:51:24;;;;;;;14.43;2.30;;;21.00;99.90;;;;;;5070608;28;20187;-68
2021/12/13 08:54:09;;;;;;;12.23;2.43;;;20.80;99.90;;;;;;5071913;28;20201;-69
2021/12/13 08:56:46;;;;;;;14.13;2.30;;;20.70;99.90;;;;;;5072056;28;20181;-70
2021/12/13 08:59:26;;;;;;;13.50;2.67;;;20.60;99.90;;;;;;5069973;28;20201;-70
2021/12/13 09:02:05;;;;;;;12.53;3.00;;;20.60;99.90;;;;;;5070310;28;20193;-70
2021/12/13 09:04:39;;;;;;;8.17;2.23;;;20.50;99.90;;;;;;5071680;28;20243;-69
2021/12/13 09:07:13;;;;;;;11.70;2.10;;;20.50;99.90;;;;;;5071697;28;20197;-68
2021/12/13 09:09:47;;;;;;;8.40;2.00;;;20.40;99.90;;;;;;5071798;28;20183;-69
2021/12/13 09:12:26;;;;;;;10.20;2.43;;;20.40;99.90;;;;;;5070560;28;20566;-70
2021/12/13 09:14:56;;;;;;;9.20;2.07;;;20.20;99.90;;;;;;5071199;28;20565;-68
2021/12/13 09:17:31;;;;;;;12.10;2.20;;;20.20;99.90;;;;;;5070867;28;20676;-68
2021/12/13 09:20:25;;;;;;;9.17;2.13;;;20.10;99.90;;;;;;5071858;28;20175;-71
2021/12/13 09:22:58;;;;;;;19.00;2.60;;;20.00;99.90;;;;;;5070584;28;20245;-67
2021/12/13 09:25:40;;;;;;;7.10;2.27;;;20.00;99.90;;;;;;5071594;28;20184;-69
2021/12/13 09:28:21;;;;;;;11.90;2.93;;;20.10;99.90;;;;;;5071481;28;20239;-68
2021/12/13 09:30:54;;;;;;;13.07;3.27;;;20.00;99.90;;;;;;5066980;28;20180;-68
2021/12/13 09:33:33;;;;;;;9.93;2.07;;;19.90;99.90;;;;;;5070896;28;20179;-71
2021/12/13 09:36:10;;;;;;;9.20;2.60;;;19.80;99.90;;;;;;5072799;28;20190;-68
2021/12/13 09:38:44;;;;;;;11.23;1.90;;;19.90;99.90;;;;;;5073098;28;20184;-72
2021/12/13 09:41:20;;;;;;;21.57;3.17;;;19.90;99.90;;;;;;5072909;28;20604;-70
2021/12/13 09:44:02;;;;;;;10.70;2.60;;;19.90;99.90;;;;;;5073167;28;20171;-71
2021/12/13 09:46:41;;;;;;;8.67;1.90;;;19.80;99.90;;;;;;5072803;28;20187;-68
2021/12/13 09:49:21;;;;;;;8.60;2.33;;;19.70;99.90;;;;;;5071833;28;20184;-72
2021/12/13 09:52:04;;;;;;;13.20;2.47;;;19.50;99.90;;;;;;5073238;28;20287;-70
2021/12/13 09:54:37;;;;;;;12.90;2.70;;;19.60;99.90;;;;;;5073213;28;20260;-69
2021/12/13 09:57:13;;;;;;;15.53;2.97;;;19.40;99.90;;;;;;5073448;28;20243;-73
2021/12/13 09:59:53;;;;;;;5.97;2.27;;;19.50;99.90;;;;;;5073101;28;20266;-72
2021/12/13 10:02:36;;;;;;;11.73;2.77;;;19.40;99.90;;;;;;5073174;28;20176;-72
2021/12/13 10:05:08;;;;;;;14.67;2.73;;;19.40;99.90;;;;;;5072410;28;20217;-72
2021/12/13 10:07:38;;;;;;;13.43;2.60;;;19.40;99.90;;;;;;5073861;28;20233;-69
2021/12/13 10:10:09;;;;;;;13.50;3.00;;;19.20;99.90;;;;;;5074905;28;20264;-72
2021/12/13 10:12:45;;;;;;;15.57;2.57;;;19.30;99.90;;;;;;5073069;28;20180;-71
2021/12/13 10:15:16;;;;;;;13.50;2.30;;;19.20;99.90;;;;;;5077312;28;20215;-72
2021/12/13 10:17:49;;;;;;;11.70;2.90;;;19.20;99.90;;;;;;5073639;28;20173;-72
2021/12/13 10:20:30;;;;;;;10.77;2.10;;;19.20;99.90;;;;;;5073091;28;20195;-70
2021/12/13 10:22:58;;;;;;;11.77;2.60;;;19.10;99.90;;;;;;5076650;28;20179;-70
2021/12/13 10:25:31;;;;;;;10.23;2.13;;;19.00;99.90;;;;;;5076782;28;20189;-69
2021/12/13 10:28:00;;;;;;;11.17;2.10;;;19.00;99.90;;;;;;5080751;28;20656;-68
2021/12/13 10:30:33;;;;;;;10.33;1.63;;;19.00;99.90;;;;;;5076708;28;20658;-70
2021/12/13 10:33:02;;;;;;;12.43;2.37;;;19.00;99.90;;;;;;5076134;28;20267;-68
2021/12/13 10:35:34;;;;;;;12.13;2.33;;;19.00;99.90;;;;;;5076434;28;20273;-71
2021/12/13 10:38:08;;;;;;;13.40;2.30;;;19.00;99.90;;;;;;5076409;28;20557;-69
2021/12/13 10:40:46;;;;;;;13.07;2.43;;;19.00;99.90;;;;;;5076441;28;20177;-71
2021/12/13 10:43:24;;;;;;;18.57;2.60;;;18.90;99.90;;;;;;5076232;28;20211;-71
2021/12/13 10:45:59;;;;;;;11.50;2.23;;;18.90;99.90;;;;;;5076364;28;20245;-73
2021/12/13 10:48:30;;;;;;;11.13;2.23;;;18.90;99.90;;;;;;5076125;28;20216;-69
2021/12/13 10:51:31;;;;;;;11.83;2.80;;;18.90;99.90;;;;;;5076143;28;20206;-71
2021/12/13 10:54:04;;;;;;;10.03;1.70;;;18.80;99.90;;;;;;5075907;28;20200;-71
2021/12/13 10:56:36;;;;;;;18.60;2.73;;;18.70;99.90;;;;;;5076250;28;20673;-69
2021/12/13 10:59:07;;;;;;;15.90;3.50;;;18.60;99.90;;;;;;5075190;28;20182;-70
2021/12/13 11:01:41;;;;;;;9.67;2.30;;;18.60;99.90;;;;;;5076172;28;20643;-69
2021/12/13 11:04:13;;;;;;;12.67;2.50;;;18.50;99.90;;;;;;5076020;28;20187;-67
2021/12/13 11:06:42;;;;;;;16.17;3.33;;;18.60;99.90;;;;;;5075769;28;20228;-72
2021/12/13 11:09:14;;;;;;;15.13;3.10;;;18.60;99.90;;;;;;5076152;28;20535;-71
2021/12/13 11:11:47;;;;;;;16.03;2.83;;;18.60;99.90;;;;;;5075702;28;20639;-72
2021/12/13 11:14:20;;;;;;;12.17;2.50;;;18.50;99.90;;;;;;5075354;28;20199;-70
2021/12/13 11:17:05;;;;;;;10.60;2.70;;;18.50;99.90;;;;;;5076002;28;20183;-71
2021/12/13 11:19:36;;;;;;;15.43;2.50;;;18.40;99.90;;;;;;5075280;28;20187;-71
2021/12/13 11:22:08;;;;;;;7.07;2.00;;;18.40;99.90;;;;;;5073179;28;20232;-70
2021/12/13 11:24:37;;;;;;;10.97;2.97;;;18.30;99.90;;;;;;5053147;28;20184;-70
2021/12/13 11:27:10;;;;;;;10.37;2.60;;;18.30;99.90;;;;;;5074932;28;20187;-70
2021/12/13 11:29:41;;;;;;;20.87;3.03;;;18.20;99.90;;;;;;5074959;28;20544;-68
2021/12/13 11:32:38;;;;;;;9.23;2.50;;;18.30;99.90;;;;;;5074573;28;20176;-68
2021/12/13 11:35:11;;;;;;;8.57;2.80;;;18.30;99.90;;;;;;5075509;28;20215;-71
2021/12/13 11:38:04;;;;;;;16.10;3.93;;;18.30;99.90;;;;;;5075140;28;20314;-71
2021/12/13 11:40:58;;;;;;;14.27;3.10;;;18.30;99.90;;;;;;5075178;28;20176;-70
2021/12/13 11:43:47;;;;;;;10.77;2.20;;;18.30;99.90;;;;;;5075560;28;20259;-72
2021/12/13 11:46:55;;;;;;;14.87;3.03;;;18.30;99.90;;;;;;5074228;28;20705;-70
2021/12/13 11:49:46;;;;;;;13.43;2.87;;;18.20;99.90;;;;;;5075166;28;20195;-71
2021/12/13 11:52:28;;;;;;;10.27;2.63;;;18.20;99.90;;;;;;5075090;28;20168;-71
2021/12/13 11:55:13;;;;;;;10.27;2.00;;;18.10;99.90;;;;;;5074454;28;20576;-71
2021/12/13 11:58:14;;;;;;;10.33;2.63;;;18.10;99.90;;;;;;5074697;28;20227;-68
2021/12/13 12:01:02;;;;;;;8.87;2.70;;;18.00;99.90;;;;;;5075052;28;20164;-70
2021/12/13 12:03:47;;;;;;;11.03;2.33;;;18.00;99.90;;;;;;5075191;28;20547;-70
2021/12/13 12:06:51;;;;;;;13.23;3.67;;;17.90;99.90;;;;;;5074522;28;20220;-70
2021/12/13 12:09:49;;;;;;;9.47;2.63;;;17.80;99.90;;;;;;5074800;28;20729;-71
2021/12/13 12:12:44;;;;;;;7.43;2.10;;;17.70;99.90;;;;;;5074533;28;20178;-71
2021/12/13 12:15:12;;;;;;;13.57;3.07;;;17.60;99.90;;;;;;5074061;28;20220;-71
2021/12/13 12:17:39;;;;;;;8.33;2.50;;;17.60;99.90;;;;;;5074555;28;20176;-70
2021/12/13 12:20:11;;;;;;;9.40;2.30;;;17.60;99.90;;;;;;5074835;28;20176;-70
2021/12/13 12:22:57;;;;;;;13.03;3.17;;;17.60;99.90;;;;;;5074353;28;20253;-70
2021/12/13 12:25:28;;;;;;;12.30;2.93;;;17.60;99.90;;;;;;5074244;28;20589;-71
2021/12/13 12:28:02;;;;;;;15.77;3.07;;;17.50;99.90;;;;;;5054830;28;20268;-71
2021/12/13 12:30:34;;;;;;;10.20;2.60;;;17.40;99.90;;;;;;5057466;28;20203;-70
2021/12/13 12:33:07;;;;;;;10.00;2.67;;;17.50;99.90;;;;;;5073770;28;20615;-70
2021/12/13 12:35:47;;;;;;;10.17;2.50;;;17.50;99.90;;;;;;5073810;28;20720;-71
2021/12/13 12:38:32;;;;;;;15.00;2.90;;;17.60;99.90;;;;;;5073929;28;20171;-70
2021/12/13 12:41:11;;;;;;;11.63;2.80;;;17.60;99.90;;;;;;5074261;28;20183;-69
2021/12/13 12:43:42;;;;;;;6.80;1.90;;;17.60;99.90;;;;;;5073901;28;20277;-71
2021/12/13 12:46:13;;;;;;;10.33;2.57;;;17.60;99.90;;;;;;5073599;28;20184;-69
2021/12/13 12:48:53;;;;;;;9.30;2.20;;;17.50;99.90;;;;;;5073883;28;20195;-71
2021/12/13 12:51:22;;;;;;;12.47;2.80;;;17.30;99.90;;;;;;5074276;28;20241;-68
2021/12/13 12:53:49;;;;;;;7.07;2.47;;;17.20;99.90;;;;;;5074010;28;20207;-68
2021/12/13 12:56:23;;;;;;;13.17;2.70;;;17.10;99.90;;;;;;5073692;28;20190;-68
2021/12/13 12:59:06;;;;;;;10.77;2.43;;;17.00;99.90;;;;;;5073661;28;20578;-70
2021/12/13 13:01:44;;;;;;;13.53;2.80;;;17.00;99.90;;;;;;5072583;28;20655;-70
2021/12/13 13:04:39;;;;;;;14.07;3.10;;;17.00;99.90;;;;;;5073607;28;20191;-70
2021/12/13 13:07:27;;;;;;;15.27;3.00;;;16.90;99.90;;;;;;5073316;28;20203;-71
2021/12/13 13:13:16;;;;;;;7.23;2.50;;;16.90;99.90;;;;;;5073205;28;20224;-71
2021/12/13 13:15:48;;;;;;;10.97;2.77;;;17.00;99.90;;;;;;5073059;28;20220;-70
2021/12/13 13:18:19;;;;;;;10.73;2.93;;;17.00;99.90;;;;;;5073404;28;20196;-70
2021/12/13 13:21:04;;;;;;;13.37;3.00;;;17.00;99.90;;;;;;5063152;28;20194;-68
2021/12/13 13:23:46;;;;;;;6.53;2.07;;;17.00;99.90;;;;;;5073468;28;20567;-69
2021/12/13 13:26:15;;;;;;;10.63;2.43;;;16.90;99.90;;;;;;5073145;28;20608;-70
2021/12/13 13:28:53;;;;;;;9.33;2.40;;;16.80;99.90;;;;;;5073668;28;20172;-72
2021/12/13 13:31:31;;;;;;;9.10;2.63;;;16.80;99.90;;;;;;5073633;28;20570;-71
2021/12/13 13:34:05;;;;;;;9.30;2.57;;;16.70;99.90;;;;;;5073315;28;20203;-69
2021/12/13 13:36:55;;;;;;;15.77;3.30;;;16.60;99.90;;;;;;5073150;28;20266;-67
2021/12/13 13:39:34;;;;;;;10.03;3.00;;;16.50;99.90;;;;;;5073090;28;20184;-70
2021/12/13 13:42:22;;;;;;;7.97;2.37;;;16.40;99.90;;;;;;5073409;28;20710;-70
2021/12/13 13:45:01;;;;;;;11.30;2.53;;;16.50;99.90;;;;;;5073107;28;20191;-71
2021/12/13 13:47:38;;;;;;;9.87;2.87;;;16.60;99.90;;;;;;5073271;28;20176;-70
2021/12/13 13:50:20;;;;;;;10.47;2.17;;;16.70;99.90;;;;;;5072848;28;20293;-71